sensor_id;sensor_type;location;lat;lon;timestamp;temperature;humidity
36424;DHT22;22458;45.328;9.514;2023-05-10T00:02:06;19.30;90.70
36424;DHT22;22458;45.328;9.514;2023-05-10T00:04:32;19.30;90.70
36424;DHT22;22458;45.328;9.514;2023-05-10T00:06:58;19.20;90.80
36424;DHT22;22458;45.328;9.514;2023-05-10T00:09:24;19.00;90.80
36424;DHT22;22458;45.328;9.514;2023-05-10T00:11:50;19.00;90.80
36424;DHT22;22458;45.328;9.514;2023-05-10T00:14:16;19.00;90.90
36424;DHT22;22458;45.328;9.514;2023-05-10T00:16:41;18.90;91.00
36424;DHT22;22458;45.328;9.514;2023-05-10T00:19:07;18.90;91.00
36424;DHT22;22458;45.328;9.514;2023-05-10T00:21:33;18.80;91.00
36424;DHT22;22458;45.328;9.514;2023-05-10T00:23:59;18.70;91.00
36424;DHT22;22458;45.328;9.514;2023-05-10T00:26:25;18.70;91.00
36424;DHT22;22458;45.328;9.514;2023-05-10T00:28:54;18.70;91.00
36424;DHT22;22458;45.328;9.514;2023-05-10T00:31:20;18.70;90.90
36424;DHT22;22458;45.328;9.514;2023-05-10T00:33:45;18.70;90.90
36424;DHT22;22458;45.328;9.514;2023-05-10T00:36:11;18.70;90.90
36424;DHT22;22458;45.328;9.514;2023-05-10T00:38:37;18.70;90.90
36424;DHT22;22458;45.328;9.514;2023-05-10T00:41:03;18.70;90.90
36424;DHT22;22458;45.328;9.514;2023-05-10T00:43:31;18.70;91.00
36424;DHT22;22458;45.328;9.514;2023-05-10T00:45:57;18.70;91.00
36424;DHT22;22458;45.328;9.514;2023-05-10T00:48:23;18.60;91.10
36424;DHT22;22458;45.328;9.514;2023-05-10T00:50:49;18.70;91.10
36424;DHT22;22458;45.328;9.514;2023-05-10T00:53:15;18.70;91.10
36424;DHT22;22458;45.328;9.514;2023-05-10T00:55:41;18.70;91.10
36424;DHT22;22458;45.328;9.514;2023-05-10T00:58:07;18.70;91.10
36424;DHT22;22458;45.328;9.514;2023-05-10T01:00:33;18.70;91.10
36424;DHT22;22458;45.328;9.514;2023-05-10T01:03:00;18.70;91.10
36424;DHT22;22458;45.328;9.514;2023-05-10T01:05:27;18.70;91.10
36424;DHT22;22458;45.328;9.514;2023-05-10T01:07:53;18.60;91.10
36424;DHT22;22458;45.328;9.514;2023-05-10T01:10:19;18.60;91.10
36424;DHT22;22458;45.328;9.514;2023-05-10T01:12:46;18.50;91.20
36424;DHT22;22458;45.328;9.514;2023-05-10T01:15:14;18.50;91.20
36424;DHT22;22458;45.328;9.514;2023-05-10T01:17:42;18.50;91.00
36424;DHT22;22458;45.328;9.514;2023-05-10T01:20:10;18.50;91.10
36424;DHT22;22458;45.328;9.514;2023-05-10T01:33:15;18.50;91.00
36424;DHT22;22458;45.328;9.514;2023-05-10T01:35:55;18.40;91.20
36424;DHT22;22458;45.328;9.514;2023-05-10T01:41:28;18.50;91.20
36424;DHT22;22458;45.328;9.514;2023-05-10T01:46:35;18.60;91.30
36424;DHT22;22458;45.328;9.514;2023-05-10T01:49:07;18.60;91.30
36424;DHT22;22458;45.328;9.514;2023-05-10T01:51:49;18.50;91.40
36424;DHT22;22458;45.328;9.514;2023-05-10T01:54:20;18.50;91.50
36424;DHT22;22458;45.328;9.514;2023-05-10T01:56:55;18.50;91.60
36424;DHT22;22458;45.328;9.514;2023-05-10T01:59:29;18.50;91.70
36424;DHT22;22458;45.328;9.514;2023-05-10T02:01:58;18.50;91.80
36424;DHT22;22458;45.328;9.514;2023-05-10T02:04:25;18.40;91.90
36424;DHT22;22458;45.328;9.514;2023-05-10T02:06:54;18.40;91.90
36424;DHT22;22458;45.328;9.514;2023-05-10T02:09:21;18.40;91.90
36424;DHT22;22458;45.328;9.514;2023-05-10T02:11:48;18.40;91.90
36424;DHT22;22458;45.328;9.514;2023-05-10T02:14:15;18.30;92.00
36424;DHT22;22458;45.328;9.514;2023-05-10T02:16:43;18.30;92.20
36424;DHT22;22458;45.328;9.514;2023-05-10T02:19:10;18.20;92.20
36424;DHT22;22458;45.328;9.514;2023-05-10T02:21:39;18.20;92.20
36424;DHT22;22458;45.328;9.514;2023-05-10T02:24:06;18.20;92.30
36424;DHT22;22458;45.328;9.514;2023-05-10T02:26:33;18.10;92.40
36424;DHT22;22458;45.328;9.514;2023-05-10T02:29:02;18.10;92.50
36424;DHT22;22458;45.328;9.514;2023-05-10T02:31:30;18.10;92.60
36424;DHT22;22458;45.328;9.514;2023-05-10T02:33:57;18.00;92.60
36424;DHT22;22458;45.328;9.514;2023-05-10T02:36:25;18.00;92.60
36424;DHT22;22458;45.328;9.514;2023-05-10T02:38:53;18.00;92.60
36424;DHT22;22458;45.328;9.514;2023-05-10T02:41:20;18.10;92.60
36424;DHT22;22458;45.328;9.514;2023-05-10T02:43:50;18.10;92.60
36424;DHT22;22458;45.328;9.514;2023-05-10T02:46:17;18.00;92.60
36424;DHT22;22458;45.328;9.514;2023-05-10T02:48:43;18.00;92.70
36424;DHT22;22458;45.328;9.514;2023-05-10T02:51:12;18.00;92.70
36424;DHT22;22458;45.328;9.514;2023-05-10T02:53:44;18.00;92.80
36424;DHT22;22458;45.328;9.514;2023-05-10T02:56:28;18.00;92.90
36424;DHT22;22458;45.328;9.514;2023-05-10T02:58:56;17.90;92.90
36424;DHT22;22458;45.328;9.514;2023-05-10T03:01:21;17.90;92.80
36424;DHT22;22458;45.328;9.514;2023-05-10T03:03:48;18.00;92.70
36424;DHT22;22458;45.328;9.514;2023-05-10T03:06:14;18.00;92.70
36424;DHT22;22458;45.328;9.514;2023-05-10T03:08:40;18.00;92.70
36424;DHT22;22458;45.328;9.514;2023-05-10T03:16:26;17.80;92.70
36424;DHT22;22458;45.328;9.514;2023-05-10T03:19:06;17.60;92.70
36424;DHT22;22458;45.328;9.514;2023-05-10T03:21:32;17.60;92.70
36424;DHT22;22458;45.328;9.514;2023-05-10T03:24:05;17.60;92.50
36424;DHT22;22458;45.328;9.514;2023-05-10T03:26:33;17.60;92.60
36424;DHT22;22458;45.328;9.514;2023-05-10T03:29:08;17.50;92.60
36424;DHT22;22458;45.328;9.514;2023-05-10T03:31:35;17.50;92.60
36424;DHT22;22458;45.328;9.514;2023-05-10T03:34:01;17.50;92.60
36424;DHT22;22458;45.328;9.514;2023-05-10T03:36:27;17.40;92.70
36424;DHT22;22458;45.328;9.514;2023-05-10T03:38:54;17.40;92.70
36424;DHT22;22458;45.328;9.514;2023-05-10T03:41:20;17.40;92.90
36424;DHT22;22458;45.328;9.514;2023-05-10T03:43:47;17.40;92.70
36424;DHT22;22458;45.328;9.514;2023-05-10T03:46:12;17.40;92.70
36424;DHT22;22458;45.328;9.514;2023-05-10T03:48:38;17.30;92.80
36424;DHT22;22458;45.328;9.514;2023-05-10T03:51:05;17.40;92.70
36424;DHT22;22458;45.328;9.514;2023-05-10T03:53:30;17.40;92.70
36424;DHT22;22458;45.328;9.514;2023-05-10T03:55:56;17.40;92.70
36424;DHT22;22458;45.328;9.514;2023-05-10T03:58:23;17.40;92.70
36424;DHT22;22458;45.328;9.514;2023-05-10T04:00:48;17.40;92.70
36424;DHT22;22458;45.328;9.514;2023-05-10T04:03:14;17.40;92.70
36424;DHT22;22458;45.328;9.514;2023-05-10T04:05:40;17.30;92.70
36424;DHT22;22458;45.328;9.514;2023-05-10T04:08:06;17.30;92.70
36424;DHT22;22458;45.328;9.514;2023-05-10T04:10:32;17.30;92.80
36424;DHT22;22458;45.328;9.514;2023-05-10T04:12:57;17.20;92.70
36424;DHT22;22458;45.328;9.514;2023-05-10T04:15:23;17.20;92.70
36424;DHT22;22458;45.328;9.514;2023-05-10T04:17:49;17.20;92.70
36424;DHT22;22458;45.328;9.514;2023-05-10T04:20:15;17.10;92.70
36424;DHT22;22458;45.328;9.514;2023-05-10T04:22:41;17.10;92.70
36424;DHT22;22458;45.328;9.514;2023-05-10T04:25:07;17.00;92.60
36424;DHT22;22458;45.328;9.514;2023-05-10T04:27:33;16.90;92.60
36424;DHT22;22458;45.328;9.514;2023-05-10T04:29:59;16.90;92.60
36424;DHT22;22458;45.328;9.514;2023-05-10T04:32:25;16.90;92.70
36424;DHT22;22458;45.328;9.514;2023-05-10T04:34:50;16.90;92.70
36424;DHT22;22458;45.328;9.514;2023-05-10T04:37:17;16.80;92.60
36424;DHT22;22458;45.328;9.514;2023-05-10T04:39:43;16.80;92.60
36424;DHT22;22458;45.328;9.514;2023-05-10T04:42:09;16.80;92.50
36424;DHT22;22458;45.328;9.514;2023-05-10T04:44:35;16.70;92.60
36424;DHT22;22458;45.328;9.514;2023-05-10T04:47:01;16.80;92.60
36424;DHT22;22458;45.328;9.514;2023-05-10T04:49:28;16.80;92.60
36424;DHT22;22458;45.328;9.514;2023-05-10T04:51:55;16.80;92.80
36424;DHT22;22458;45.328;9.514;2023-05-10T04:54:21;16.70;92.60
36424;DHT22;22458;45.328;9.514;2023-05-10T04:56:46;16.60;92.50
36424;DHT22;22458;45.328;9.514;2023-05-10T04:59:12;16.60;92.70
36424;DHT22;22458;45.328;9.514;2023-05-10T05:01:38;16.60;92.60
36424;DHT22;22458;45.328;9.514;2023-05-10T05:04:04;16.60;92.60
36424;DHT22;22458;45.328;9.514;2023-05-10T05:06:29;16.50;92.70
36424;DHT22;22458;45.328;9.514;2023-05-10T05:08:55;16.50;92.80
36424;DHT22;22458;45.328;9.514;2023-05-10T05:11:21;16.50;92.80
36424;DHT22;22458;45.328;9.514;2023-05-10T05:13:47;16.50;92.90
36424;DHT22;22458;45.328;9.514;2023-05-10T05:16:13;16.50;92.90
36424;DHT22;22458;45.328;9.514;2023-05-10T05:18:38;16.50;92.90
36424;DHT22;22458;45.328;9.514;2023-05-10T05:21:16;16.40;93.00
36424;DHT22;22458;45.328;9.514;2023-05-10T05:23:43;16.40;93.00
36424;DHT22;22458;45.328;9.514;2023-05-10T05:26:09;16.50;93.00
36424;DHT22;22458;45.328;9.514;2023-05-10T05:28:35;16.50;92.90
36424;DHT22;22458;45.328;9.514;2023-05-10T05:31:06;16.50;92.80
36424;DHT22;22458;45.328;9.514;2023-05-10T05:33:33;16.50;92.80
36424;DHT22;22458;45.328;9.514;2023-05-10T05:36:03;16.50;92.80
36424;DHT22;22458;45.328;9.514;2023-05-10T05:38:29;16.60;92.80
36424;DHT22;22458;45.328;9.514;2023-05-10T05:40:55;16.50;92.80
36424;DHT22;22458;45.328;9.514;2023-05-10T05:43:21;16.50;92.80
36424;DHT22;22458;45.328;9.514;2023-05-10T05:45:47;16.60;92.80
36424;DHT22;22458;45.328;9.514;2023-05-10T05:48:12;16.60;92.80
36424;DHT22;22458;45.328;9.514;2023-05-10T05:50:38;16.60;92.80
36424;DHT22;22458;45.328;9.514;2023-05-10T05:53:04;16.70;92.80
36424;DHT22;22458;45.328;9.514;2023-05-10T05:55:29;16.70;92.70
36424;DHT22;22458;45.328;9.514;2023-05-10T05:57:57;16.70;92.80
36424;DHT22;22458;45.328;9.514;2023-05-10T06:00:23;16.70;92.80
36424;DHT22;22458;45.328;9.514;2023-05-10T06:02:49;16.70;92.80
36424;DHT22;22458;45.328;9.514;2023-05-10T06:05:15;16.70;92.80
36424;DHT22;22458;45.328;9.514;2023-05-10T06:07:41;16.70;93.10
36424;DHT22;22458;45.328;9.514;2023-05-10T06:10:10;16.70;92.90
36424;DHT22;22458;45.328;9.514;2023-05-10T06:12:36;16.70;92.90
36424;DHT22;22458;45.328;9.514;2023-05-10T06:15:02;16.70;92.90
36424;DHT22;22458;45.328;9.514;2023-05-10T06:17:28;16.70;93.00
36424;DHT22;22458;45.328;9.514;2023-05-10T06:19:54;16.70;93.00
36424;DHT22;22458;45.328;9.514;2023-05-10T06:22:20;16.70;92.90
36424;DHT22;22458;45.328;9.514;2023-05-10T06:24:48;16.70;93.00
36424;DHT22;22458;45.328;9.514;2023-05-10T06:27:14;16.80;93.00
36424;DHT22;22458;45.328;9.514;2023-05-10T06:29:40;16.80;93.10
36424;DHT22;22458;45.328;9.514;2023-05-10T06:32:06;16.70;93.10
36424;DHT22;22458;45.328;9.514;2023-05-10T06:34:31;16.70;93.20
36424;DHT22;22458;45.328;9.514;2023-05-10T06:36:57;16.70;93.20
36424;DHT22;22458;45.328;9.514;2023-05-10T06:39:23;16.70;93.30
36424;DHT22;22458;45.328;9.514;2023-05-10T06:41:49;16.70;93.40
36424;DHT22;22458;45.328;9.514;2023-05-10T06:44:14;16.70;93.40
36424;DHT22;22458;45.328;9.514;2023-05-10T06:46:40;16.70;93.40
36424;DHT22;22458;45.328;9.514;2023-05-10T06:49:07;16.70;93.40
36424;DHT22;22458;45.328;9.514;2023-05-10T06:51:32;16.80;93.40
36424;DHT22;22458;45.328;9.514;2023-05-10T06:53:58;16.80;93.40
36424;DHT22;22458;45.328;9.514;2023-05-10T06:56:24;16.80;93.30
36424;DHT22;22458;45.328;9.514;2023-05-10T06:58:49;16.80;93.30
36424;DHT22;22458;45.328;9.514;2023-05-10T07:01:15;16.80;93.20
36424;DHT22;22458;45.328;9.514;2023-05-10T07:03:41;16.80;93.20
36424;DHT22;22458;45.328;9.514;2023-05-10T07:06:07;16.80;93.20
36424;DHT22;22458;45.328;9.514;2023-05-10T07:08:34;16.80;93.20
36424;DHT22;22458;45.328;9.514;2023-05-10T07:11:04;16.80;93.20
36424;DHT22;22458;45.328;9.514;2023-05-10T07:13:31;16.80;93.30
36424;DHT22;22458;45.328;9.514;2023-05-10T07:15:57;16.70;93.30
36424;DHT22;22458;45.328;9.514;2023-05-10T07:18:24;16.60;93.50
36424;DHT22;22458;45.328;9.514;2023-05-10T07:20:50;16.60;93.50
36424;DHT22;22458;45.328;9.514;2023-05-10T07:23:16;16.60;93.50
36424;DHT22;22458;45.328;9.514;2023-05-10T07:25:52;16.70;93.40
36424;DHT22;22458;45.328;9.514;2023-05-10T07:28:19;16.70;93.40
36424;DHT22;22458;45.328;9.514;2023-05-10T07:30:45;16.70;93.40
36424;DHT22;22458;45.328;9.514;2023-05-10T07:33:13;16.70;93.30
36424;DHT22;22458;45.328;9.514;2023-05-10T07:35:39;16.80;93.30
36424;DHT22;22458;45.328;9.514;2023-05-10T07:38:05;16.80;93.30
36424;DHT22;22458;45.328;9.514;2023-05-10T07:40:31;16.80;93.30
36424;DHT22;22458;45.328;9.514;2023-05-10T07:42:57;16.70;93.20
36424;DHT22;22458;45.328;9.514;2023-05-10T07:45:23;16.70;93.30
36424;DHT22;22458;45.328;9.514;2023-05-10T07:47:49;16.70;93.30
36424;DHT22;22458;45.328;9.514;2023-05-10T07:50:15;16.70;93.20
36424;DHT22;22458;45.328;9.514;2023-05-10T07:52:41;16.70;93.20
36424;DHT22;22458;45.328;9.514;2023-05-10T07:55:07;16.70;93.20
36424;DHT22;22458;45.328;9.514;2023-05-10T07:57:34;16.60;93.20
36424;DHT22;22458;45.328;9.514;2023-05-10T08:00:00;16.60;93.30
36424;DHT22;22458;45.328;9.514;2023-05-10T08:02:26;16.60;93.30
36424;DHT22;22458;45.328;9.514;2023-05-10T08:04:51;16.60;93.30
36424;DHT22;22458;45.328;9.514;2023-05-10T08:07:18;16.50;93.30
36424;DHT22;22458;45.328;9.514;2023-05-10T08:09:43;16.40;93.30
36424;DHT22;22458;45.328;9.514;2023-05-10T08:12:09;16.30;93.40
36424;DHT22;22458;45.328;9.514;2023-05-10T08:14:35;16.30;93.50
36424;DHT22;22458;45.328;9.514;2023-05-10T08:17:02;16.30;93.50
36424;DHT22;22458;45.328;9.514;2023-05-10T08:19:28;16.20;93.60
36424;DHT22;22458;45.328;9.514;2023-05-10T08:21:54;16.20;93.70
36424;DHT22;22458;45.328;9.514;2023-05-10T08:24:22;16.20;93.80
36424;DHT22;22458;45.328;9.514;2023-05-10T08:26:47;16.20;93.80
36424;DHT22;22458;45.328;9.514;2023-05-10T08:29:14;16.20;93.80
36424;DHT22;22458;45.328;9.514;2023-05-10T08:31:39;16.20;93.70
36424;DHT22;22458;45.328;9.514;2023-05-10T08:34:05;16.20;93.80
36424;DHT22;22458;45.328;9.514;2023-05-10T08:36:31;16.20;93.80
36424;DHT22;22458;45.328;9.514;2023-05-10T08:38:57;16.20;93.70
36424;DHT22;22458;45.328;9.514;2023-05-10T08:41:24;16.20;93.70
36424;DHT22;22458;45.328;9.514;2023-05-10T08:43:52;16.20;93.70
36424;DHT22;22458;45.328;9.514;2023-05-10T08:46:19;16.30;93.80
36424;DHT22;22458;45.328;9.514;2023-05-10T08:48:47;16.30;93.80
36424;DHT22;22458;45.328;9.514;2023-05-10T08:51:15;16.40;93.70
36424;DHT22;22458;45.328;9.514;2023-05-10T08:53:41;16.40;93.60
36424;DHT22;22458;45.328;9.514;2023-05-10T08:56:07;16.40;93.70
36424;DHT22;22458;45.328;9.514;2023-05-10T08:58:33;16.40;93.60
36424;DHT22;22458;45.328;9.514;2023-05-10T09:00:59;16.50;93.60
36424;DHT22;22458;45.328;9.514;2023-05-10T09:03:26;16.50;93.90
36424;DHT22;22458;45.328;9.514;2023-05-10T09:05:52;16.50;93.60
36424;DHT22;22458;45.328;9.514;2023-05-10T09:08:18;16.60;93.60
36424;DHT22;22458;45.328;9.514;2023-05-10T09:10:44;16.60;93.50
36424;DHT22;22458;45.328;9.514;2023-05-10T09:13:14;16.70;93.30
36424;DHT22;22458;45.328;9.514;2023-05-10T09:15:41;16.70;93.20
36424;DHT22;22458;45.328;9.514;2023-05-10T09:18:06;16.70;93.20
36424;DHT22;22458;45.328;9.514;2023-05-10T09:20:32;16.70;93.20
36424;DHT22;22458;45.328;9.514;2023-05-10T09:22:58;16.70;93.20
36424;DHT22;22458;45.328;9.514;2023-05-10T09:25:23;16.70;93.20
36424;DHT22;22458;45.328;9.514;2023-05-10T09:27:49;16.70;93.10
36424;DHT22;22458;45.328;9.514;2023-05-10T09:30:26;16.70;93.00
36424;DHT22;22458;45.328;9.514;2023-05-10T09:32:53;16.80;93.00
36424;DHT22;22458;45.328;9.514;2023-05-10T09:35:21;16.80;92.90
36424;DHT22;22458;45.328;9.514;2023-05-10T09:37:49;16.80;92.90
36424;DHT22;22458;45.328;9.514;2023-05-10T09:40:20;16.80;92.90
36424;DHT22;22458;45.328;9.514;2023-05-10T09:42:59;16.80;93.00
36424;DHT22;22458;45.328;9.514;2023-05-10T09:45:33;16.80;92.90
36424;DHT22;22458;45.328;9.514;2023-05-10T09:48:00;16.80;92.80
36424;DHT22;22458;45.328;9.514;2023-05-10T09:50:27;16.80;92.80
36424;DHT22;22458;45.328;9.514;2023-05-10T09:53:01;16.80;92.70
36424;DHT22;22458;45.328;9.514;2023-05-10T09:55:45;16.80;92.70
36424;DHT22;22458;45.328;9.514;2023-05-10T09:58:15;16.80;92.60
36424;DHT22;22458;45.328;9.514;2023-05-10T10:00:43;16.80;92.70
36424;DHT22;22458;45.328;9.514;2023-05-10T10:03:17;16.80;92.70
36424;DHT22;22458;45.328;9.514;2023-05-10T10:05:43;16.80;92.70
36424;DHT22;22458;45.328;9.514;2023-05-10T10:08:10;16.80;92.70
36424;DHT22;22458;45.328;9.514;2023-05-10T10:10:36;16.80;92.70
36424;DHT22;22458;45.328;9.514;2023-05-10T10:13:02;16.80;92.60
36424;DHT22;22458;45.328;9.514;2023-05-10T10:15:28;16.80;92.70
36424;DHT22;22458;45.328;9.514;2023-05-10T10:17:54;16.90;92.70
36424;DHT22;22458;45.328;9.514;2023-05-10T10:20:22;16.90;92.70
36424;DHT22;22458;45.328;9.514;2023-05-10T10:22:48;16.90;92.70
36424;DHT22;22458;45.328;9.514;2023-05-10T10:25:15;16.90;92.60
36424;DHT22;22458;45.328;9.514;2023-05-10T10:30:41;17.00;92.50
36424;DHT22;22458;45.328;9.514;2023-05-10T10:36:05;17.10;92.50
36424;DHT22;22458;45.328;9.514;2023-05-10T10:41:31;17.10;92.50
36424;DHT22;22458;45.328;9.514;2023-05-10T10:52:25;17.10;92.30
36424;DHT22;22458;45.328;9.514;2023-05-10T10:55:02;17.10;92.20
36424;DHT22;22458;45.328;9.514;2023-05-10T10:57:32;17.10;92.20
36424;DHT22;22458;45.328;9.514;2023-05-10T11:03:12;17.10;92.20
36424;DHT22;22458;45.328;9.514;2023-05-10T11:05:49;17.20;92.10
36424;DHT22;22458;45.328;9.514;2023-05-10T11:08:27;17.20;92.10
36424;DHT22;22458;45.328;9.514;2023-05-10T11:15:57;17.20;92.00
36424;DHT22;22458;45.328;9.514;2023-05-10T11:18:27;17.20;92.10
36424;DHT22;22458;45.328;9.514;2023-05-10T11:20:57;17.20;92.10
36424;DHT22;22458;45.328;9.514;2023-05-10T11:23:30;17.30;92.10
36424;DHT22;22458;45.328;9.514;2023-05-10T11:25:56;17.30;92.00
36424;DHT22;22458;45.328;9.514;2023-05-10T11:28:21;17.30;91.90
36424;DHT22;22458;45.328;9.514;2023-05-10T11:30:47;17.40;91.90
36424;DHT22;22458;45.328;9.514;2023-05-10T11:33:17;17.30;91.90
36424;DHT22;22458;45.328;9.514;2023-05-10T11:35:46;17.40;91.90
36424;DHT22;22458;45.328;9.514;2023-05-10T11:38:13;17.40;91.90
36424;DHT22;22458;45.328;9.514;2023-05-10T11:40:39;17.40;91.80
36424;DHT22;22458;45.328;9.514;2023-05-10T11:43:05;17.40;91.80
36424;DHT22;22458;45.328;9.514;2023-05-10T11:45:34;17.40;91.80
36424;DHT22;22458;45.328;9.514;2023-05-10T11:48:01;17.40;91.80
36424;DHT22;22458;45.328;9.514;2023-05-10T11:50:27;17.40;91.90
36424;DHT22;22458;45.328;9.514;2023-05-10T11:52:54;17.40;91.90
36424;DHT22;22458;45.328;9.514;2023-05-10T11:55:21;17.40;91.80
36424;DHT22;22458;45.328;9.514;2023-05-10T11:57:47;17.40;91.90
36424;DHT22;22458;45.328;9.514;2023-05-10T12:00:13;17.40;91.90
36424;DHT22;22458;45.328;9.514;2023-05-10T12:02:41;17.40;91.90
36424;DHT22;22458;45.328;9.514;2023-05-10T12:05:08;17.40;91.90
36424;DHT22;22458;45.328;9.514;2023-05-10T12:07:34;17.40;91.80
36424;DHT22;22458;45.328;9.514;2023-05-10T12:10:10;17.40;91.80
36424;DHT22;22458;45.328;9.514;2023-05-10T12:12:41;17.50;91.90
36424;DHT22;22458;45.328;9.514;2023-05-10T12:15:27;17.50;91.90
36424;DHT22;22458;45.328;9.514;2023-05-10T12:17:53;17.50;91.70
36424;DHT22;22458;45.328;9.514;2023-05-10T12:20:20;17.60;92.00
36424;DHT22;22458;45.328;9.514;2023-05-10T12:22:49;17.60;91.70
36424;DHT22;22458;45.328;9.514;2023-05-10T12:25:15;17.60;91.70
36424;DHT22;22458;45.328;9.514;2023-05-10T12:27:48;17.60;91.60
36424;DHT22;22458;45.328;9.514;2023-05-10T12:30:20;17.70;91.60
36424;DHT22;22458;45.328;9.514;2023-05-10T12:32:46;17.70;91.70
36424;DHT22;22458;45.328;9.514;2023-05-10T12:35:12;17.70;91.60
36424;DHT22;22458;45.328;9.514;2023-05-10T12:37:37;17.70;91.50
36424;DHT22;22458;45.328;9.514;2023-05-10T12:40:10;17.70;91.50
36424;DHT22;22458;45.328;9.514;2023-05-10T12:42:38;17.70;91.50
36424;DHT22;22458;45.328;9.514;2023-05-10T12:45:05;17.70;91.50
36424;DHT22;22458;45.328;9.514;2023-05-10T12:47:32;17.70;91.50
36424;DHT22;22458;45.328;9.514;2023-05-10T12:49:58;17.80;91.40
36424;DHT22;22458;45.328;9.514;2023-05-10T12:52:25;17.80;91.30
36424;DHT22;22458;45.328;9.514;2023-05-10T12:54:52;17.80;91.30
36424;DHT22;22458;45.328;9.514;2023-05-10T12:57:18;17.80;91.30
36424;DHT22;22458;45.328;9.514;2023-05-10T12:59:44;17.80;91.20
36424;DHT22;22458;45.328;9.514;2023-05-10T13:02:10;17.80;91.10
36424;DHT22;22458;45.328;9.514;2023-05-10T13:04:36;17.90;91.30
36424;DHT22;22458;45.328;9.514;2023-05-10T13:07:05;17.80;91.10
36424;DHT22;22458;45.328;9.514;2023-05-10T13:09:31;17.90;91.10
36424;DHT22;22458;45.328;9.514;2023-05-10T13:11:57;17.90;91.10
36424;DHT22;22458;45.328;9.514;2023-05-10T13:14:24;17.90;91.00
36424;DHT22;22458;45.328;9.514;2023-05-10T13:16:50;18.00;90.90
36424;DHT22;22458;45.328;9.514;2023-05-10T13:19:16;18.00;90.80
36424;DHT22;22458;45.328;9.514;2023-05-10T13:21:43;18.10;91.00
36424;DHT22;22458;45.328;9.514;2023-05-10T13:24:10;18.20;90.70
36424;DHT22;22458;45.328;9.514;2023-05-10T13:26:42;18.20;90.50
36424;DHT22;22458;45.328;9.514;2023-05-10T13:29:08;18.30;90.50
36424;DHT22;22458;45.328;9.514;2023-05-10T13:31:34;18.30;90.40
36424;DHT22;22458;45.328;9.514;2023-05-10T13:34:01;18.30;90.30
36424;DHT22;22458;45.328;9.514;2023-05-10T13:36:28;18.30;90.20
36424;DHT22;22458;45.328;9.514;2023-05-10T13:38:53;18.30;90.20
36424;DHT22;22458;45.328;9.514;2023-05-10T13:41:19;18.30;90.20
36424;DHT22;22458;45.328;9.514;2023-05-10T13:43:45;18.40;90.10
36424;DHT22;22458;45.328;9.514;2023-05-10T13:46:11;18.40;90.10
36424;DHT22;22458;45.328;9.514;2023-05-10T13:48:36;18.50;90.00
36424;DHT22;22458;45.328;9.514;2023-05-10T13:51:02;18.60;89.80
36424;DHT22;22458;45.328;9.514;2023-05-10T13:53:28;18.70;89.70
36424;DHT22;22458;45.328;9.514;2023-05-10T13:55:54;18.80;89.50
36424;DHT22;22458;45.328;9.514;2023-05-10T13:58:20;18.90;89.30
36424;DHT22;22458;45.328;9.514;2023-05-10T14:00:45;19.00;89.00
36424;DHT22;22458;45.328;9.514;2023-05-10T14:03:11;19.10;88.80
36424;DHT22;22458;45.328;9.514;2023-05-10T14:05:37;19.20;88.70
36424;DHT22;22458;45.328;9.514;2023-05-10T14:08:03;19.20;88.40
36424;DHT22;22458;45.328;9.514;2023-05-10T14:10:29;19.30;88.10
36424;DHT22;22458;45.328;9.514;2023-05-10T14:12:55;19.40;88.50
36424;DHT22;22458;45.328;9.514;2023-05-10T14:15:21;19.40;87.90
36424;DHT22;22458;45.328;9.514;2023-05-10T14:17:47;19.50;87.60
36424;DHT22;22458;45.328;9.514;2023-05-10T14:20:13;19.50;87.40
36424;DHT22;22458;45.328;9.514;2023-05-10T14:22:39;19.50;87.30
36424;DHT22;22458;45.328;9.514;2023-05-10T14:25:04;19.60;87.20
36424;DHT22;22458;45.328;9.514;2023-05-10T14:27:31;19.70;87.10
36424;DHT22;22458;45.328;9.514;2023-05-10T14:29:56;19.70;86.90
36424;DHT22;22458;45.328;9.514;2023-05-10T14:32:22;19.70;86.90
36424;DHT22;22458;45.328;9.514;2023-05-10T14:34:48;19.70;87.00
36424;DHT22;22458;45.328;9.514;2023-05-10T14:37:14;19.70;86.80
36424;DHT22;22458;45.328;9.514;2023-05-10T14:39:40;19.70;86.80
36424;DHT22;22458;45.328;9.514;2023-05-10T14:42:07;19.70;86.80
36424;DHT22;22458;45.328;9.514;2023-05-10T14:44:34;19.60;86.80
36424;DHT22;22458;45.328;9.514;2023-05-10T14:46:59;19.50;86.80
36424;DHT22;22458;45.328;9.514;2023-05-10T14:49:25;19.50;87.00
36424;DHT22;22458;45.328;9.514;2023-05-10T14:51:51;19.40;87.10
36424;DHT22;22458;45.328;9.514;2023-05-10T14:54:17;19.40;87.70
36424;DHT22;22458;45.328;9.514;2023-05-10T14:56:43;19.30;87.10
36424;DHT22;22458;45.328;9.514;2023-05-10T14:59:09;19.30;87.10
36424;DHT22;22458;45.328;9.514;2023-05-10T15:01:34;19.30;87.20
36424;DHT22;22458;45.328;9.514;2023-05-10T15:04:03;19.30;87.40
36424;DHT22;22458;45.328;9.514;2023-05-10T15:06:34;19.30;87.40
36424;DHT22;22458;45.328;9.514;2023-05-10T15:09:01;19.40;87.40
36424;DHT22;22458;45.328;9.514;2023-05-10T15:11:27;19.30;87.30
36424;DHT22;22458;45.328;9.514;2023-05-10T15:13:53;19.40;87.20
36424;DHT22;22458;45.328;9.514;2023-05-10T15:16:18;19.30;87.20
36424;DHT22;22458;45.328;9.514;2023-05-10T15:18:45;19.30;87.20
36424;DHT22;22458;45.328;9.514;2023-05-10T15:21:11;19.30;87.20
36424;DHT22;22458;45.328;9.514;2023-05-10T15:23:37;19.30;87.20
36424;DHT22;22458;45.328;9.514;2023-05-10T15:26:03;19.30;87.20
36424;DHT22;22458;45.328;9.514;2023-05-10T15:28:29;19.20;87.20
36424;DHT22;22458;45.328;9.514;2023-05-10T15:30:55;19.30;87.10
36424;DHT22;22458;45.328;9.514;2023-05-10T15:33:21;19.30;86.80
36424;DHT22;22458;45.328;9.514;2023-05-10T15:35:47;19.40;86.70
36424;DHT22;22458;45.328;9.514;2023-05-10T15:38:13;19.40;86.60
36424;DHT22;22458;45.328;9.514;2023-05-10T15:40:39;19.40;86.30
36424;DHT22;22458;45.328;9.514;2023-05-10T15:43:05;19.50;86.30
36424;DHT22;22458;45.328;9.514;2023-05-10T15:45:31;19.50;86.30
36424;DHT22;22458;45.328;9.514;2023-05-10T15:47:57;19.50;86.40
36424;DHT22;22458;45.328;9.514;2023-05-10T15:50:24;19.50;86.40
36424;DHT22;22458;45.328;9.514;2023-05-10T15:52:50;19.60;86.20
36424;DHT22;22458;45.328;9.514;2023-05-10T15:55:16;19.60;86.50
36424;DHT22;22458;45.328;9.514;2023-05-10T15:57:43;19.60;85.70
36424;DHT22;22458;45.328;9.514;2023-05-10T16:00:11;19.60;85.70
36424;DHT22;22458;45.328;9.514;2023-05-10T16:02:40;19.60;85.60
36424;DHT22;22458;45.328;9.514;2023-05-10T16:05:06;19.70;85.50
36424;DHT22;22458;45.328;9.514;2023-05-10T16:07:32;19.70;85.60
36424;DHT22;22458;45.328;9.514;2023-05-10T16:09:58;19.70;85.70
36424;DHT22;22458;45.328;9.514;2023-05-10T16:12:26;19.70;85.80
36424;DHT22;22458;45.328;9.514;2023-05-10T16:14:52;19.70;86.00
36424;DHT22;22458;45.328;9.514;2023-05-10T16:17:18;19.70;85.90